PWSweather.com
Personal Weather Stations
Station Observations
CLIFTONPWS
PenrithGB CA102ES

PenrithGB CA102ES

Lat: 54.630933, Lon: -2.718524

Elevation: 521

Station Type: Maplin N96GY

http://www.cliftonpws.co.uk/weather

Latest ConditionsUpdated 6:45:00 PM GMT Saturday, Dec 7, 2019
Currently Today's Max Today's Min Today's Average
Temperature 50.0°F10.0°C 50.5°F10.3°C 45.5°F7.5°C 47.8°F8.8°C
Dew Point 48.1°F8.9°C 48.6°F9.2°C 43.0°F6.1°C 45.3°F7.4°C
Winds 10.6 mph S17.1 kmh S 11.3 mph -18.2 kmh - - 5.7 mph 9.2 kmh
Wind Gusts 22.8 mph36.7 kmh 23.5 mph37.8 kmh - -
Humidity 93% 95% 86% 91%
Pressure 29.54 in1000.3 mb 29.79 in1008.8 mb 29.54 in1000.3 mb -
Precipitation - 0.01 in0.3 mm - -
Hour Temp Dew Point Humidity Winds Wind Gusts Pressure Precip Precip Rate Daily Precip Total
06:45 PM 50.0°F10.0°C 48.1°F8.9°C 93% 10.6 mph S17.1 kmh S 22.8 mph36.7 kmh 29.54 in1000.3 mb 0.00 in0.0 mm 0.00 in0.0 mm 0.01 in0.3 mm
06:30 PM 50.0°F10.0°C 48.1°F8.9°C 93% 7.8 mph S12.6 kmh S 17.4 mph28.0 kmh 29.55 in1000.7 mb 0.00 in0.0 mm 0.00 in0.0 mm 0.01 in0.3 mm
06:15 PM 50.2°F10.1°C 48.5°F9.2°C 94% 7.5 mph SSE12.1 kmh SSE 15.2 mph24.5 kmh 29.57 in1001.4 mb 0.00 in0.0 mm 0.00 in0.0 mm 0.01 in0.3 mm
06:00 PM 50.4°F10.2°C 48.4°F9.1°C 93% 3.0 mph S4.8 kmh S 10.7 mph17.2 kmh 29.58 in1001.7 mb 0.00 in0.0 mm 0.00 in0.0 mm 0.01 in0.3 mm
05:45 PM 50.5°F10.3°C 48.6°F9.2°C 93% 2.8 mph SE4.5 kmh SE 8.3 mph13.4 kmh 29.59 in1002.0 mb 0.00 in0.0 mm 0.00 in0.0 mm 0.01 in0.3 mm
05:30 PM 50.4°F10.2°C 48.4°F9.1°C 93% 4.5 mph SSE7.2 kmh SSE 11.4 mph18.3 kmh 29.60 in1002.4 mb 0.00 in0.0 mm 0.00 in0.0 mm 0.01 in0.3 mm
05:15 PM 50.4°F10.2°C 48.4°F9.1°C 93% 3.4 mph S5.5 kmh S 10.7 mph17.2 kmh 29.61 in1002.7 mb 0.00 in0.0 mm 0.00 in0.0 mm 0.01 in0.3 mm
05:00 PM 50.2°F10.1°C 47.9°F8.8°C 92% 1.5 mph NNE2.4 kmh NNE 5.4 mph8.7 kmh 29.63 in1003.4 mb 0.00 in0.0 mm 0.00 in0.0 mm 0.01 in0.3 mm
04:45 PM 50.2°F10.1°C 47.9°F8.8°C 92% 4.9 mph S7.9 kmh S 12.1 mph19.5 kmh 29.64 in1003.7 mb 0.00 in0.0 mm 0.00 in0.0 mm 0.01 in0.3 mm
04:30 PM 50.2°F10.1°C 47.9°F8.8°C 92% 5.8 mph SSE9.3 kmh SSE 13.6 mph21.9 kmh 29.64 in1003.7 mb 0.00 in0.0 mm 0.00 in0.0 mm 0.01 in0.3 mm
04:15 PM 50.2°F10.1°C 47.7°F8.7°C 91% 7.3 mph S11.7 kmh S 20.6 mph33.2 kmh 29.65 in1004.1 mb 0.00 in0.0 mm 0.00 in0.0 mm 0.01 in0.3 mm
04:00 PM 49.8°F9.9°C 47.0°F8.3°C 90% 5.9 mph S9.5 kmh S 14.5 mph23.3 kmh 29.65 in1004.1 mb 0.00 in0.0 mm 0.00 in0.0 mm 0.01 in0.3 mm
03:45 PM 49.5°F9.7°C 46.1°F7.8°C 88% 1.4 mph S2.3 kmh S 7.6 mph12.2 kmh 29.66 in1004.4 mb 0.00 in0.0 mm 0.00 in0.0 mm 0.01 in0.3 mm
03:30 PM 49.8°F9.9°C 46.1°F7.8°C 87% 2.0 mph S3.2 kmh S 8.3 mph13.4 kmh 29.66 in1004.4 mb 0.00 in0.0 mm 0.00 in0.0 mm 0.01 in0.3 mm
03:15 PM 49.6°F9.8°C 46.2°F7.9°C 88% 5.1 mph S8.2 kmh S 11.4 mph18.3 kmh 29.66 in1004.4 mb 0.00 in0.0 mm 0.00 in0.0 mm 0.01 in0.3 mm
03:00 PM 49.5°F9.7°C 45.8°F7.7°C 87% 4.0 mph SSE6.4 kmh SSE 11.4 mph18.3 kmh 29.68 in1005.1 mb 0.00 in0.0 mm 0.00 in0.0 mm 0.01 in0.3 mm
02:45 PM 49.3°F9.6°C 45.6°F7.6°C 87% 3.7 mph S6.0 kmh S 10.7 mph17.2 kmh 29.67 in1004.7 mb 0.00 in0.0 mm 0.00 in0.0 mm 0.01 in0.3 mm
02:30 PM 48.9°F9.4°C 45.2°F7.3°C 87% 3.2 mph ESE5.1 kmh ESE 11.4 mph18.3 kmh 29.68 in1005.1 mb 0.00 in0.0 mm 0.00 in0.0 mm 0.01 in0.3 mm
02:15 PM 49.3°F9.6°C 45.6°F7.6°C 87% 3.5 mph SE5.6 kmh SE 9.2 mph14.8 kmh 29.69 in1005.4 mb 0.00 in0.0 mm 0.00 in0.0 mm 0.01 in0.3 mm
02:00 PM 49.1°F9.5°C 45.1°F7.3°C 86% 6.3 mph SSE10.1 kmh SSE 15.2 mph24.5 kmh 29.69 in1005.4 mb 0.00 in0.0 mm 0.00 in0.0 mm 0.01 in0.3 mm
01:45 PM 49.3°F9.6°C 45.3°F7.4°C 86% 7.4 mph S11.9 kmh S 17.4 mph28.0 kmh 29.70 in1005.8 mb 0.00 in0.0 mm 0.00 in0.0 mm 0.01 in0.3 mm
01:30 PM 49.5°F9.7°C 45.4°F7.4°C 86% 7.8 mph SSE12.6 kmh SSE 18.3 mph29.5 kmh 29.71 in1006.1 mb 0.00 in0.0 mm 0.00 in0.0 mm 0.01 in0.3 mm
01:15 PM 49.6°F9.8°C 45.6°F7.6°C 86% 7.9 mph S12.7 kmh S 15.2 mph24.5 kmh 29.73 in1006.8 mb 0.00 in0.0 mm 0.00 in0.0 mm 0.01 in0.3 mm
01:00 PM 49.6°F9.8°C 45.6°F7.6°C 86% 5.6 mph S9.0 kmh S 12.1 mph19.5 kmh 29.73 in1006.8 mb 0.00 in0.0 mm 0.00 in0.0 mm 0.01 in0.3 mm
12:45 PM 49.5°F9.7°C 45.8°F7.7°C 87% 8.3 mph SSE13.4 kmh SSE 15.2 mph24.5 kmh 29.73 in1006.8 mb 0.00 in0.0 mm 0.00 in0.0 mm 0.01 in0.3 mm
12:30 PM 49.3°F9.6°C 45.9°F7.7°C 88% 5.7 mph S9.2 kmh S 15.9 mph25.6 kmh 29.74 in1007.1 mb 0.00 in0.0 mm 0.00 in0.0 mm 0.01 in0.3 mm
12:15 PM 48.9°F9.4°C 45.5°F7.5°C 88% 7.3 mph S11.7 kmh S 14.5 mph23.3 kmh 29.75 in1007.5 mb 0.00 in0.0 mm 0.00 in0.0 mm 0.01 in0.3 mm
12:00 PM 48.9°F9.4°C 45.5°F7.5°C 88% 6.2 mph S10.0 kmh S 13.0 mph20.9 kmh 29.76 in1007.8 mb 0.00 in0.0 mm 0.00 in0.0 mm 0.01 in0.3 mm
11:45 AM 48.9°F9.4°C 45.5°F7.5°C 88% 5.9 mph S9.5 kmh S 12.1 mph19.5 kmh 29.77 in1008.1 mb 0.00 in0.0 mm 0.00 in0.0 mm 0.01 in0.3 mm
11:30 AM 48.9°F9.4°C 45.5°F7.5°C 88% 5.6 mph S9.0 kmh S 11.4 mph18.3 kmh 29.76 in1007.8 mb 0.00 in0.0 mm 0.00 in0.0 mm 0.01 in0.3 mm
11:15 AM 49.1°F9.5°C 45.7°F7.6°C 88% 6.0 mph S9.7 kmh S 13.0 mph20.9 kmh 29.77 in1008.1 mb 0.00 in0.0 mm 0.00 in0.0 mm 0.01 in0.3 mm
11:00 AM 48.7°F9.3°C 45.6°F7.6°C 89% 4.5 mph S7.2 kmh S 9.2 mph14.8 kmh 29.77 in1008.1 mb 0.00 in0.0 mm 0.00 in0.0 mm 0.01 in0.3 mm
10:45 AM 48.2°F9.0°C 45.1°F7.3°C 89% 4.1 mph SSW6.6 kmh SSW 9.2 mph14.8 kmh 29.77 in1008.1 mb 0.00 in0.0 mm 0.00 in0.0 mm 0.01 in0.3 mm
10:30 AM 47.8°F8.8°C 44.8°F7.1°C 89% 3.6 mph SSW5.8 kmh SSW 9.2 mph14.8 kmh 29.78 in1008.5 mb 0.00 in0.0 mm 0.00 in0.0 mm 0.01 in0.3 mm
10:15 AM 47.7°F8.7°C 44.9°F7.2°C 90% 4.0 mph SSW6.4 kmh SSW 8.3 mph13.4 kmh 29.79 in1008.8 mb 0.00 in0.0 mm 0.00 in0.0 mm 0.01 in0.3 mm
10:00 AM 47.3°F8.5°C 44.5°F6.9°C 90% 3.5 mph S5.6 kmh S 10.7 mph17.2 kmh 29.78 in1008.5 mb 0.00 in0.0 mm 0.00 in0.0 mm 0.01 in0.3 mm
09:45 AM 47.1°F8.4°C 44.3°F6.8°C 90% 2.8 mph SSW4.5 kmh SSW 8.3 mph13.4 kmh 29.79 in1008.8 mb 0.00 in0.0 mm 0.00 in0.0 mm 0.01 in0.3 mm
09:30 AM 46.8°F8.2°C 44.3°F6.8°C 91% 2.2 mph SSW3.5 kmh SSW 7.6 mph12.2 kmh 29.79 in1008.8 mb 0.00 in0.0 mm 0.00 in0.0 mm 0.01 in0.3 mm
09:15 AM 46.4°F8.0°C 43.9°F6.6°C 91% 1.4 mph SSW2.3 kmh SSW 4.5 mph7.2 kmh 29.79 in1008.8 mb 0.00 in0.0 mm 0.00 in0.0 mm 0.01 in0.3 mm
09:00 AM 46.2°F7.9°C 44.0°F6.7°C 92% 2.5 mph SW4.0 kmh SW 7.6 mph12.2 kmh 29.79 in1008.8 mb 0.00 in0.0 mm 0.00 in0.0 mm 0.01 in0.3 mm
08:45 AM 46.0°F7.8°C 43.8°F6.6°C 92% 0.9 mph SW1.4 kmh SW 3.8 mph6.1 kmh 29.78 in1008.5 mb 0.00 in0.0 mm 0.00 in0.0 mm 0.01 in0.3 mm
08:30 AM 45.9°F7.7°C 43.7°F6.5°C 92% 2.7 mph SW4.3 kmh SW 8.3 mph13.4 kmh 29.78 in1008.5 mb 0.00 in0.0 mm 0.00 in0.0 mm 0.01 in0.3 mm
08:15 AM 45.7°F7.6°C 43.8°F6.6°C 93% 4.8 mph SW7.7 kmh SW 11.4 mph18.3 kmh 29.78 in1008.5 mb 0.00 in0.0 mm 0.00 in0.0 mm 0.01 in0.3 mm
08:07 AM 45.7°F7.6°C 43.8°F6.6°C 93% 4.0 mph SW6.4 kmh SW 6.9 mph11.1 kmh 29.78 in1008.5 mb 0.00 in0.0 mm 0.00 in0.0 mm 0.01 in0.3 mm
08:02 AM 45.5°F7.5°C 43.6°F6.4°C 93% 4.9 mph SW7.9 kmh SW 8.3 mph13.4 kmh 29.78 in1008.5 mb 0.00 in0.0 mm 0.00 in0.0 mm 0.01 in0.3 mm
08:00 AM 45.5°F7.5°C 43.6°F6.4°C 93% 5.2 mph SW8.4 kmh SW 11.4 mph18.3 kmh 29.78 in1008.5 mb 0.00 in0.0 mm 0.00 in0.0 mm 0.01 in0.3 mm
07:45 AM 45.5°F7.5°C 43.3°F6.3°C 92% 4.9 mph SW7.9 kmh SW 13.6 mph21.9 kmh 29.78 in1008.5 mb 0.00 in0.0 mm 0.00 in0.0 mm 0.01 in0.3 mm
07:30 AM 45.5°F7.5°C 43.0°F6.1°C 91% 4.5 mph SSW7.2 kmh SSW 11.4 mph18.3 kmh 29.78 in1008.5 mb 0.00 in0.0 mm 0.00 in0.0 mm 0.01 in0.3 mm
07:15 AM 45.7°F7.6°C 43.2°F6.2°C 91% 4.7 mph SW7.6 kmh SW 11.4 mph18.3 kmh 29.78 in1008.5 mb 0.00 in0.0 mm 0.00 in0.0 mm 0.01 in0.3 mm
07:00 AM 46.0°F7.8°C 43.6°F6.4°C 91% 6.7 mph WSW10.8 kmh WSW 15.2 mph24.5 kmh 29.78 in1008.5 mb 0.00 in0.0 mm 0.00 in0.0 mm 0.01 in0.3 mm
06:45 AM 45.9°F7.7°C 43.1°F6.2°C 90% 6.2 mph SW10.0 kmh SW 13.6 mph21.9 kmh 29.78 in1008.5 mb 0.00 in0.0 mm 0.00 in0.0 mm 0.01 in0.3 mm
06:30 AM 46.0°F7.8°C 43.3°F6.3°C 90% 5.9 mph SW9.5 kmh SW 14.5 mph23.3 kmh 29.78 in1008.5 mb 0.00 in0.0 mm 0.00 in0.0 mm 0.01 in0.3 mm
06:15 AM 46.4°F8.0°C 43.6°F6.4°C 90% 6.0 mph SW9.7 kmh SW 14.5 mph23.3 kmh 29.77 in1008.1 mb 0.00 in0.0 mm 0.00 in0.0 mm 0.01 in0.3 mm
06:00 AM 46.4°F8.0°C 43.6°F6.4°C 90% 9.4 mph SW15.1 kmh SW 18.3 mph29.5 kmh 29.77 in1008.1 mb 0.00 in0.0 mm 0.00 in0.0 mm 0.01 in0.3 mm
05:45 AM 46.4°F8.0°C 43.6°F6.4°C 90% 10.5 mph SW16.9 kmh SW 18.3 mph29.5 kmh 29.77 in1008.1 mb 0.00 in0.0 mm 0.00 in0.0 mm 0.01 in0.3 mm
05:30 AM 46.4°F8.0°C 43.9°F6.6°C 91% 10.5 mph WSW16.9 kmh WSW 23.5 mph37.8 kmh 29.76 in1007.8 mb 0.00 in0.0 mm 0.00 in0.0 mm 0.01 in0.3 mm
05:15 AM 46.6°F8.1°C 44.4°F6.9°C 92% 10.7 mph SW17.2 kmh SW 21.3 mph34.3 kmh 29.75 in1007.5 mb 0.00 in0.0 mm 0.00 in0.0 mm 0.01 in0.3 mm
05:00 AM 46.8°F8.2°C 44.6°F7.0°C 92% 11.3 mph SW18.2 kmh SW 23.5 mph37.8 kmh 29.75 in1007.5 mb 0.00 in0.0 mm 0.00 in0.0 mm 0.01 in0.3 mm
04:45 AM 46.9°F8.3°C 44.7°F7.1°C 92% 9.4 mph SW15.1 kmh SW 18.3 mph29.5 kmh 29.75 in1007.5 mb 0.00 in0.0 mm 0.00 in0.0 mm 0.01 in0.3 mm
04:30 AM 47.1°F8.4°C 44.9°F7.2°C 92% 9.9 mph SW15.9 kmh SW 18.3 mph29.5 kmh 29.75 in1007.5 mb 0.00 in0.0 mm 0.00 in0.0 mm 0.01 in0.3 mm
04:15 AM 47.1°F8.4°C 44.9°F7.2°C 92% 8.4 mph SW13.5 kmh SW 16.8 mph27.0 kmh 29.75 in1007.5 mb 0.00 in0.0 mm 0.00 in0.0 mm 0.01 in0.3 mm
04:00 AM 47.1°F8.4°C 44.9°F7.2°C 92% 6.5 mph SW10.5 kmh SW 13.6 mph21.9 kmh 29.74 in1007.1 mb 0.00 in0.0 mm 0.00 in0.0 mm 0.01 in0.3 mm
03:45 AM 46.9°F8.3°C 45.0°F7.2°C 93% 7.8 mph SW12.6 kmh SW 14.5 mph23.3 kmh 29.74 in1007.1 mb 0.00 in0.0 mm 0.00 in0.0 mm 0.01 in0.3 mm
03:30 AM 46.9°F8.3°C 45.0°F7.2°C 93% 7.0 mph SW11.3 kmh SW 13.0 mph20.9 kmh 29.74 in1007.1 mb 0.00 in0.0 mm 0.00 in0.0 mm 0.01 in0.3 mm
03:15 AM 47.1°F8.4°C 45.2°F7.3°C 93% 6.3 mph SW10.1 kmh SW 13.0 mph20.9 kmh 29.73 in1006.8 mb 0.00 in0.0 mm 0.00 in0.0 mm 0.01 in0.3 mm
03:00 AM 46.9°F8.3°C 45.0°F7.2°C 93% 7.2 mph SW11.6 kmh SW 16.8 mph27.0 kmh 29.73 in1006.8 mb 0.00 in0.0 mm 0.00 in0.0 mm 0.01 in0.3 mm
02:45 AM 47.1°F8.4°C 45.2°F7.3°C 93% 7.8 mph SW12.6 kmh SW 18.3 mph29.5 kmh 29.73 in1006.8 mb 0.00 in0.0 mm 0.00 in0.0 mm 0.01 in0.3 mm
02:30 AM 46.9°F8.3°C 45.3°F7.4°C 94% 7.4 mph WSW11.9 kmh WSW 14.5 mph23.3 kmh 29.71 in1006.1 mb 0.00 in0.0 mm 0.00 in0.0 mm 0.01 in0.3 mm
02:15 AM 46.8°F8.2°C 45.4°F7.4°C 95% 7.8 mph SW12.6 kmh SW 18.3 mph29.5 kmh 29.71 in1006.1 mb 0.00 in0.0 mm 0.00 in0.0 mm 0.01 in0.3 mm
02:00 AM 46.8°F8.2°C 45.4°F7.4°C 95% 7.7 mph SW12.4 kmh SW 14.5 mph23.3 kmh 29.71 in1006.1 mb 0.01 in0.3 mm 0.00 in0.0 mm 0.01 in0.3 mm
01:45 AM 46.9°F8.3°C 45.3°F7.4°C 94% 8.8 mph SW14.2 kmh SW 15.2 mph24.5 kmh 29.70 in1005.8 mb 0.01 in0.3 mm 0.00 in0.0 mm 0.01 in0.3 mm
01:30 AM 46.8°F8.2°C 45.4°F7.4°C 95% 5.0 mph SW8.0 kmh SW 11.4 mph18.3 kmh 29.70 in1005.8 mb 0.01 in0.3 mm 0.00 in0.0 mm 0.01 in0.3 mm
01:15 AM 46.6°F8.1°C 45.2°F7.3°C 95% 3.7 mph SW6.0 kmh SW 8.3 mph13.4 kmh 29.70 in1005.8 mb 0.01 in0.3 mm 0.04 in1.0 mm 0.01 in0.3 mm
01:00 AM 46.6°F8.1°C 45.2°F7.3°C 95% 3.5 mph SSW5.6 kmh SSW 9.8 mph15.8 kmh 29.70 in1005.8 mb 0.00 in0.0 mm 0.00 in0.0 mm 0.00 in0.0 mm
12:45 AM 46.6°F8.1°C 44.9°F7.2°C 94% 5.0 mph SSW8.0 kmh SSW 11.4 mph18.3 kmh 29.69 in1005.4 mb 0.00 in0.0 mm 0.00 in0.0 mm 0.00 in0.0 mm
12:30 AM 46.9°F8.3°C 44.7°F7.1°C 92% 5.2 mph SW8.4 kmh SW 13.6 mph21.9 kmh 29.69 in1005.4 mb 0.00 in0.0 mm 0.00 in0.0 mm 0.00 in0.0 mm
12:15 AM 46.9°F8.3°C 44.4°F6.9°C 91% 4.3 mph SW6.9 kmh SW 10.7 mph17.2 kmh 29.70 in1005.8 mb 0.00 in0.0 mm 0.00 in0.0 mm 0.00 in0.0 mm
12:00 AM 46.9°F8.3°C 44.4°F6.9°C 91% 3.8 mph SW6.1 kmh SW 8.3 mph13.4 kmh 29.69 in1005.4 mb 0.00 in0.0 mm 0.00 in0.0 mm 0.00 in0.0 mm